Time;durP1;ratioP1;P1;durP2;ratioP2;P2;SDS_P1;SDS_P2;PMS_P1;PMS_P2;Temp;Humidity;BMP_temperature;BMP_pressure;BME280_temperature;BME280_humidity;BME280_pressure;Samples;Min_cycle;Max_cycle;Signal;HPM_P1;HPM_P2
2023/11/21 00:00:18;;;;;;;6.55;5.10;;;11.60;80.10;;;;;;4950951;29;21719;-75
2023/11/21 00:02:45;;;;;;;7.43;5.25;;;11.60;80.10;;;;;;4950022;28;20087;-74
2023/11/21 00:05:13;;;;;;;6.95;5.00;;;11.50;80.10;;;;;;4951125;28;20035;-74
2023/11/21 00:07:40;;;;;;;6.72;5.18;;;11.50;80.10;;;;;;4934046;29;20054;-75
2023/11/21 00:10:10;;;;;;;7.82;5.80;;;11.50;80.10;;;;;;4949876;28;20039;-75
2023/11/21 00:12:36;;;;;;;8.18;5.22;;;11.50;80.10;;;;;;4946237;29;20042;-74
2023/11/21 00:15:05;;;;;;;7.47;5.60;;;11.50;80.10;;;;;;4930591;29;20027;-75
2023/11/21 00:17:31;;;;;;;7.25;5.60;;;11.50;80.10;;;;;;4944893;28;20063;-75
2023/11/21 00:19:56;;;;;;;7.35;5.35;;;11.50;80.10;;;;;;4931737;29;20075;-75
2023/11/21 00:22:22;;;;;;;8.30;5.78;;;11.50;80.10;;;;;;4948015;29;20126;-75
2023/11/21 00:24:48;;;;;;;6.88;4.90;;;11.40;80.10;;;;;;4948426;29;20495;-75
2023/11/21 00:27:14;;;;;;;7.32;5.43;;;11.40;80.10;;;;;;4950629;28;20047;-75
2023/11/21 00:29:40;;;;;;;7.03;5.10;;;11.50;80.10;;;;;;4950470;29;20490;-75
2023/11/21 00:32:06;;;;;;;6.97;5.00;;;11.40;80.70;;;;;;4948337;29;20035;-75
2023/11/21 00:34:32;;;;;;;8.18;5.30;;;11.40;80.00;;;;;;4950759;29;20031;-75
2023/11/21 00:36:58;;;;;;;6.82;5.00;;;11.40;80.10;;;;;;4938753;29;20027;-74
2023/11/21 00:39:25;;;;;;;6.97;5.13;;;11.40;80.10;;;;;;4954454;28;20054;-75
2023/11/21 00:41:52;;;;;;;7.15;4.88;;;11.40;80.10;;;;;;4962442;28;20039;-75
2023/11/21 00:44:18;;;;;;;8.65;5.72;;;11.30;80.00;;;;;;4935220;29;20031;-75
2023/11/21 00:46:44;;;;;;;8.98;5.53;;;11.40;80.10;;;;;;4947469;29;20395;-74
2023/11/21 00:49:09;;;;;;;8.15;5.57;;;11.30;80.00;;;;;;4947988;29;20488;-75
2023/11/21 00:51:35;;;;;;;7.95;5.25;;;11.30;80.00;;;;;;4944827;29;20036;-75
2023/11/21 00:54:01;;;;;;;7.70;5.57;;;11.30;80.00;;;;;;4926609;29;20038;-75
2023/11/21 00:56:28;;;;;;;8.18;6.10;;;11.30;80.10;;;;;;4947399;29;20035;-75
2023/11/21 00:58:53;;;;;;;6.88;5.20;;;11.30;80.10;;;;;;4952827;29;20128;-75
2023/11/21 01:01:20;;;;;;;8.18;5.65;;;11.30;80.10;;;;;;4932761;29;20044;-75
2023/11/21 01:03:49;;;;;;;6.90;5.05;;;11.20;80.00;;;;;;4942162;29;20039;-75
2023/11/21 01:06:15;;;;;;;7.15;5.43;;;11.20;80.00;;;;;;4950980;29;20039;-75
2023/11/21 01:08:41;;;;;;;7.47;5.50;;;11.20;80.00;;;;;;4951535;29;20051;-74
2023/11/21 01:11:10;;;;;;;9.15;6.50;;;11.20;80.10;;;;;;4943351;28;20035;-75
2023/11/21 01:13:36;;;;;;;8.25;5.75;;;11.20;80.10;;;;;;4923477;29;20041;-75
2023/11/21 01:16:01;;;;;;;8.18;5.95;;;11.20;80.10;;;;;;4952124;29;20122;-75
2023/11/21 01:18:29;;;;;;;9.20;5.68;;;11.20;80.10;;;;;;4920002;29;20479;-75
2023/11/21 01:20:55;;;;;;;6.97;5.32;;;11.20;80.10;;;;;;4945547;29;20114;-74
2023/11/21 01:23:20;;;;;;;7.97;5.47;;;11.10;80.00;;;;;;4931839;29;20126;-75
2023/11/21 01:25:46;;;;;;;7.50;5.57;;;11.10;80.10;;;;;;4950358;29;20106;-75
2023/11/21 01:28:12;;;;;;;7.40;5.43;;;11.10;80.10;;;;;;4947063;29;20034;-76
2023/11/21 01:30:38;;;;;;;8.45;5.90;;;11.10;80.10;;;;;;4933082;29;20039;-75
2023/11/21 01:33:03;;;;;;;8.43;5.78;;;11.10;80.10;;;;;;4952836;29;20122;-75
2023/11/21 01:35:30;;;;;;;7.60;5.82;;;11.10;80.10;;;;;;4950800;29;20070;-75
2023/11/21 01:37:56;;;;;;;8.20;5.88;;;11.10;80.10;;;;;;4933559;29;20445;-75
2023/11/21 01:40:22;;;;;;;7.95;5.97;;;11.10;80.20;;;;;;4927071;29;20099;-75
2023/11/21 01:42:48;;;;;;;7.35;5.40;;;11.10;80.20;;;;;;4925427;29;20468;-75
2023/11/21 01:45:14;;;;;;;8.15;5.93;;;11.10;80.20;;;;;;4929699;29;20043;-75
2023/11/21 01:47:42;;;;;;;7.65;5.38;;;11.10;80.20;;;;;;4952358;28;21297;-75
2023/11/21 01:50:12;;;;;;;7.03;5.40;;;11.10;80.20;;;;;;4933485;29;20082;-74
2023/11/21 01:52:39;;;;;;;7.15;5.35;;;11.10;80.20;;;;;;4934767;29;20128;-75
2023/11/21 01:55:08;;;;;;;9.35;6.45;;;11.10;80.20;;;;;;4945390;29;20066;-75
2023/11/21 01:57:37;;;;;;;7.68;5.75;;;11.10;80.20;;;;;;4935284;29;20027;-75
2023/11/21 02:00:15;;;;;;;8.55;5.90;;;11.10;80.20;;;;;;4920798;29;20027;-75
2023/11/21 02:02:48;;;;;;;7.43;5.22;;;11.10;80.20;;;;;;4950332;29;20366;-75
2023/11/21 02:05:16;;;;;;;7.30;5.63;;;11.10;80.20;;;;;;4933152;29;20499;-75
2023/11/21 02:07:42;;;;;;;7.38;5.60;;;11.10;80.20;;;;;;4934896;29;20517;-75
2023/11/21 02:10:09;;;;;;;7.43;5.50;;;11.10;80.20;;;;;;4952098;29;20059;-75
2023/11/21 02:12:36;;;;;;;8.40;5.78;;;11.10;80.20;;;;;;4952598;29;20028;-75
2023/11/21 02:15:05;;;;;;;7.85;6.20;;;11.10;80.20;;;;;;4932341;29;20044;-75
2023/11/21 02:17:32;;;;;;;6.60;5.28;;;11.10;80.30;;;;;;4920062;29;20130;-75
2023/11/21 02:19:59;;;;;;;7.85;5.72;;;11.10;80.30;;;;;;4935623;29;20035;-74
2023/11/21 02:22:30;;;;;;;8.75;5.80;;;11.10;80.30;;;;;;4951366;29;20037;-74
2023/11/21 02:24:57;;;;;;;7.50;5.40;;;11.10;80.30;;;;;;4937937;29;20020;-75
2023/11/21 02:27:24;;;;;;;7.43;5.28;;;11.10;80.30;;;;;;4939043;29;20035;-75
2023/11/21 02:29:50;;;;;;;8.73;5.50;;;11.00;80.20;;;;;;4935517;29;20032;-74
2023/11/21 02:32:18;;;;;;;8.13;6.15;;;11.10;80.30;;;;;;4955182;29;20027;-74
2023/11/21 02:34:45;;;;;;;7.60;5.57;;;11.10;80.30;;;;;;4955703;29;20031;-75
2023/11/21 02:37:10;;;;;;;8.35;6.03;;;11.10;80.30;;;;;;4952741;29;20031;-75
2023/11/21 02:39:36;;;;;;;7.40;5.90;;;11.10;80.30;;;;;;4950774;29;20094;-74
2023/11/21 02:42:02;;;;;;;8.52;5.95;;;11.10;80.30;;;;;;4952023;29;20028;-75
2023/11/21 02:44:28;;;;;;;8.02;5.47;;;11.10;80.30;;;;;;4932775;29;20038;-75
2023/11/21 02:46:53;;;;;;;8.57;6.20;;;11.10;80.30;;;;;;4954937;29;20027;-74
2023/11/21 02:49:19;;;;;;;8.85;5.75;;;11.10;80.30;;;;;;4956664;29;20052;-74
2023/11/21 02:51:45;;;;;;;9.18;6.22;;;11.10;80.30;;;;;;4938420;29;20086;-75
2023/11/21 02:54:11;;;;;;;8.02;5.95;;;11.10;80.30;;;;;;4933790;29;20523;-74
2023/11/21 02:56:37;;;;;;;8.65;6.13;;;11.10;80.30;;;;;;4955882;29;20039;-75
2023/11/21 02:59:03;;;;;;;7.30;5.50;;;11.10;80.30;;;;;;4955659;29;20082;-75
2023/11/21 03:01:29;;;;;;;8.38;6.35;;;11.10;80.30;;;;;;4939167;29;20130;-74
2023/11/21 03:03:55;;;;;;;9.23;6.00;;;11.10;80.30;;;;;;4955764;29;20131;-75
2023/11/21 03:06:21;;;;;;;8.57;6.07;;;11.10;80.40;;;;;;4952844;29;20093;-75
2023/11/21 03:08:47;;;;;;;8.05;5.75;;;11.10;80.30;;;;;;4953536;29;20130;-75
2023/11/21 03:11:13;;;;;;;9.02;6.03;;;11.10;80.40;;;;;;4943974;29;20032;-75
2023/11/21 03:13:41;;;;;;;8.52;5.82;;;11.10;80.30;;;;;;4950283;29;20023;-75
2023/11/21 03:16:09;;;;;;;8.75;5.97;;;11.10;80.40;;;;;;4936863;29;20035;-75
2023/11/21 03:18:34;;;;;;;9.60;6.07;;;11.10;80.30;;;;;;4947881;29;20019;-75
2023/11/21 03:21:00;;;;;;;7.75;5.38;;;11.10;80.30;;;;;;4954435;29;20515;-75
2023/11/21 03:23:26;;;;;;;8.18;5.90;;;11.10;80.30;;;;;;4955574;29;20042;-74
2023/11/21 03:25:51;;;;;;;8.27;5.70;;;11.10;80.30;;;;;;4954611;29;20481;-74
2023/11/21 03:28:17;;;;;;;8.80;5.78;;;11.10;80.40;;;;;;4938065;29;20034;-75
2023/11/21 03:30:43;;;;;;;8.13;5.75;;;11.10;80.40;;;;;;4938304;29;20031;-75
2023/11/21 03:33:09;;;;;;;9.43;6.50;;;11.10;80.30;;;;;;4953870;29;20495;-75
2023/11/21 03:35:35;;;;;;;7.88;5.35;;;11.10;80.40;;;;;;4936572;28;20373;-74
2023/11/21 03:38:00;;;;;;;8.60;6.20;;;11.10;80.30;;;;;;4935323;29;20040;-75
2023/11/21 03:40:28;;;;;;;8.82;6.28;;;11.10;80.40;;;;;;4953036;29;20039;-75
2023/11/21 03:42:54;;;;;;;8.52;6.35;;;11.10;80.40;;;;;;4954159;29;20457;-75
2023/11/21 03:45:20;;;;;;;9.80;6.22;;;11.10;80.30;;;;;;4954685;29;20083;-75
2023/11/21 03:47:47;;;;;;;8.48;5.82;;;11.10;80.40;;;;;;4937871;29;20023;-75
2023/11/21 03:50:13;;;;;;;8.27;6.03;;;11.10;80.40;;;;;;4952205;29;20500;-75
2023/11/21 03:52:39;;;;;;;7.57;5.90;;;11.10;80.40;;;;;;4951523;29;20036;-74
2023/11/21 03:55:05;;;;;;;8.40;5.53;;;11.10;80.40;;;;;;4953674;29;20042;-75
2023/11/21 03:57:31;;;;;;;9.30;6.05;;;11.10;80.40;;;;;;4951042;29;20033;-75
2023/11/21 03:59:57;;;;;;;8.30;6.20;;;11.10;80.40;;;;;;4953690;29;20035;-74
2023/11/21 04:02:22;;;;;;;7.97;5.90;;;11.10;80.40;;;;;;4937144;29;20034;-75
2023/11/21 04:04:48;;;;;;;7.90;5.72;;;11.10;80.40;;;;;;4934100;29;20482;-75
2023/11/21 04:07:14;;;;;;;8.15;5.90;;;11.10;80.40;;;;;;4949270;29;20042;-74
2023/11/21 04:09:41;;;;;;;8.38;6.32;;;11.20;80.40;;;;;;4952964;28;20098;-76
2023/11/21 04:12:09;;;;;;;8.15;6.05;;;11.10;80.40;;;;;;4944121;28;20032;-75
2023/11/21 04:14:35;;;;;;;8.30;6.05;;;11.20;80.40;;;;;;4953306;29;20049;-75
2023/11/21 04:17:01;;;;;;;8.35;6.13;;;11.20;80.50;;;;;;4952154;29;20039;-75
2023/11/21 04:19:26;;;;;;;8.43;6.18;;;11.20;80.50;;;;;;4953556;29;20098;-75
2023/11/21 04:21:52;;;;;;;9.10;6.72;;;11.10;80.40;;;;;;4954339;29;20547;-75
2023/11/21 04:24:18;;;;;;;7.97;5.95;;;11.20;80.50;;;;;;4932863;29;20031;-74
2023/11/21 04:26:44;;;;;;;7.85;5.97;;;11.20;80.50;;;;;;4954948;29;20031;-75
2023/11/21 04:29:10;;;;;;;7.95;6.22;;;11.20;80.50;;;;;;4935922;29;20102;-75
2023/11/21 04:31:35;;;;;;;8.18;6.13;;;11.20;80.50;;;;;;4932498;29;20031;-75
2023/11/21 04:34:03;;;;;;;7.82;5.80;;;11.20;80.50;;;;;;4952736;28;20035;-75
2023/11/21 04:36:30;;;;;;;7.45;5.40;;;11.20;80.50;;;;;;4949279;29;20035;-74
2023/11/21 04:38:56;;;;;;;11.00;6.03;;;11.20;80.50;;;;;;4952155;29;20118;-75
2023/11/21 04:41:22;;;;;;;8.20;5.53;;;11.20;80.50;;;;;;4953042;29;20114;-75
2023/11/21 04:43:49;;;;;;;7.55;5.90;;;11.20;80.50;;;;;;4919834;29;20126;-75
2023/11/21 04:46:14;;;;;;;8.25;5.85;;;11.20;80.50;;;;;;4950896;29;20122;-74
2023/11/21 04:48:40;;;;;;;7.90;6.18;;;11.20;80.50;;;;;;4948581;28;20162;-74
2023/11/21 04:51:06;;;;;;;7.15;5.07;;;11.20;80.50;;;;;;4931230;29;20481;-75
2023/11/21 04:53:32;;;;;;;7.85;6.13;;;11.20;80.50;;;;;;4932987;29;20516;-75
2023/11/21 04:55:58;;;;;;;7.32;5.60;;;11.20;80.50;;;;;;4951462;29;20131;-75
2023/11/21 04:58:24;;;;;;;8.00;5.75;;;11.20;80.50;;;;;;4953714;29;20035;-75
2023/11/21 05:00:50;;;;;;;8.07;5.70;;;11.20;80.50;;;;;;4951532;29;20346;-74
2023/11/21 05:03:15;;;;;;;8.95;5.50;;;11.20;80.50;;;;;;4953001;29;20081;-75
2023/11/21 05:05:41;;;;;;;7.88;6.00;;;11.10;80.50;;;;;;4949742;29;20039;-74
2023/11/21 05:08:08;;;;;;;7.65;5.57;;;11.20;80.50;;;;;;4949519;29;20492;-75
2023/11/21 05:10:34;;;;;;;7.05;5.15;;;11.20;80.50;;;;;;4902171;29;20082;-75
2023/11/21 05:12:59;;;;;;;7.30;5.35;;;11.20;80.50;;;;;;4933200;29;20058;-75
2023/11/21 05:15:27;;;;;;;6.85;5.07;;;11.20;80.50;;;;;;4944706;29;20070;-75
2023/11/21 05:17:53;;;;;;;6.68;4.85;;;11.20;80.50;;;;;;4959938;28;20036;-75
2023/11/21 05:20:21;;;;;;;6.65;4.57;;;11.20;80.50;;;;;;4948330;29;20051;-75
2023/11/21 05:22:50;;;;;;;7.10;5.25;;;11.20;80.50;;;;;;4948974;29;20031;-74
2023/11/21 05:25:18;;;;;;;6.85;5.00;;;11.20;80.60;;;;;;4935725;29;20048;-74
2023/11/21 05:27:45;;;;;;;7.68;5.78;;;11.20;80.50;;;;;;4948913;29;20227;-75
2023/11/21 05:30:11;;;;;;;6.65;5.18;;;11.10;80.40;;;;;;4945901;28;20046;-75
2023/11/21 05:32:37;;;;;;;7.47;5.18;;;11.20;80.50;;;;;;4944006;29;20063;-74
2023/11/21 05:35:03;;;;;;;7.72;5.68;;;11.20;80.50;;;;;;4903554;29;20027;-74
2023/11/21 05:37:29;;;;;;;7.10;5.50;;;11.20;80.50;;;;;;4933088;29;20042;-75
2023/11/21 05:39:59;;;;;;;6.18;4.90;;;11.20;80.60;;;;;;4949261;29;20035;-74
2023/11/21 05:42:25;;;;;;;7.38;5.50;;;11.20;80.50;;;;;;4948977;28;20050;-75
2023/11/21 05:44:51;;;;;;;8.00;5.63;;;11.20;80.50;;;;;;4950541;29;20480;-75
2023/11/21 05:47:17;;;;;;;7.70;5.53;;;11.20;80.50;;;;;;4951977;28;20066;-75
2023/11/21 05:49:45;;;;;;;6.95;5.10;;;11.20;80.50;;;;;;4948751;29;20043;-76
2023/11/21 05:52:10;;;;;;;7.72;5.68;;;11.20;80.60;;;;;;4934516;29;20138;-75
2023/11/21 05:54:36;;;;;;;7.07;5.25;;;11.20;80.60;;;;;;4945106;29;20400;-75
2023/11/21 05:57:02;;;;;;;7.70;5.25;;;11.20;80.60;;;;;;4943232;29;20421;-75
2023/11/21 05:59:28;;;;;;;7.13;5.35;;;11.20;80.60;;;;;;4948661;29;20488;-76
2023/11/21 06:01:53;;;;;;;7.47;5.97;;;11.20;80.60;;;;;;4947483;28;20451;-74
2023/11/21 06:04:22;;;;;;;6.57;4.88;;;11.20;80.50;;;;;;4949846;29;20091;-75
2023/11/21 06:06:47;;;;;;;7.28;5.03;;;11.20;80.60;;;;;;4939067;29;20044;-75
2023/11/21 06:09:13;;;;;;;6.90;5.55;;;11.20;80.60;;;;;;4940171;29;20082;-74
2023/11/21 06:11:39;;;;;;;7.40;5.20;;;11.20;80.60;;;;;;4940603;28;20067;-75
2023/11/21 06:14:07;;;;;;;6.45;5.10;;;11.20;80.60;;;;;;4927171;29;20039;-75
2023/11/21 06:16:33;;;;;;;6.90;4.97;;;11.20;80.60;;;;;;4927174;29;20035;-75
2023/11/21 06:18:59;;;;;;;6.95;5.18;;;11.20;80.60;;;;;;4950166;29;20031;-75
2023/11/21 06:21:25;;;;;;;7.25;5.40;;;11.20;80.60;;;;;;4950984;29;20027;-74
2023/11/21 06:23:52;;;;;;;7.68;5.55;;;11.20;80.60;;;;;;4950375;29;20061;-76
2023/11/21 06:26:18;;;;;;;6.63;5.25;;;11.20;80.60;;;;;;4948925;29;20043;-75
2023/11/21 06:28:45;;;;;;;6.78;4.88;;;11.20;80.60;;;;;;4950458;29;20499;-75
2023/11/21 06:31:10;;;;;;;7.93;5.38;;;11.20;80.60;;;;;;4947956;29;20059;-75
2023/11/21 06:33:36;;;;;;;6.78;5.10;;;11.20;80.50;;;;;;4933060;29;20166;-75
2023/11/21 06:36:02;;;;;;;7.25;5.28;;;11.20;80.50;;;;;;4949582;29;20579;-76
2023/11/21 06:38:29;;;;;;;7.60;5.53;;;11.20;80.50;;;;;;4948493;29;20023;-75
2023/11/21 06:40:56;;;;;;;8.07;5.43;;;11.20;80.60;;;;;;4945000;29;20035;-75
2023/11/21 06:43:22;;;;;;;6.65;5.30;;;11.20;80.60;;;;;;4942383;29;20035;-76
2023/11/21 06:45:48;;;;;;;6.72;5.13;;;11.20;80.60;;;;;;4947667;29;20035;-74
2023/11/21 06:48:14;;;;;;;7.45;5.20;;;11.20;80.50;;;;;;4917368;29;20039;-74
2023/11/21 06:50:41;;;;;;;7.03;5.28;;;11.20;80.60;;;;;;4949670;29;20050;-74
2023/11/21 06:53:08;;;;;;;6.80;4.88;;;11.20;80.60;;;;;;4929389;29;20345;-74
2023/11/21 06:55:34;;;;;;;6.65;4.82;;;11.20;80.50;;;;;;4946441;29;20036;-74
2023/11/21 06:58:00;;;;;;;6.82;5.05;;;11.20;80.50;;;;;;4952000;29;20054;-74
2023/11/21 07:00:27;;;;;;;7.20;5.22;;;11.20;80.50;;;;;;4949813;29;20097;-74
2023/11/21 07:02:54;;;;;;;6.28;4.75;;;11.30;80.60;;;;;;4935204;29;20036;-74
2023/11/21 07:05:22;;;;;;;7.63;5.32;;;11.20;80.50;;;;;;4948379;29;20026;-75
2023/11/21 07:07:49;;;;;;;7.47;5.28;;;11.30;80.60;;;;;;4946472;29;20051;-75
2023/11/21 07:10:15;;;;;;;6.43;4.97;;;11.30;80.50;;;;;;4951809;28;20051;-74
2023/11/21 07:12:41;;;;;;;7.35;5.53;;;11.20;80.50;;;;;;4953677;29;20031;-74
2023/11/21 07:15:09;;;;;;;6.47;5.03;;;11.30;80.60;;;;;;4955841;29;20408;-75
2023/11/21 07:17:38;;;;;;;7.10;5.25;;;11.20;80.50;;;;;;4954462;29;20039;-74
2023/11/21 07:20:04;;;;;;;6.82;5.07;;;11.30;80.60;;;;;;4954973;29;20042;-74
2023/11/21 07:22:29;;;;;;;6.63;5.05;;;11.30;80.50;;;;;;4954432;29;20128;-74
2023/11/21 07:24:56;;;;;;;7.28;5.38;;;11.30;80.50;;;;;;4954997;29;20162;-74
2023/11/21 07:27:22;;;;;;;7.80;5.50;;;11.30;80.50;;;;;;4935231;29;20546;-75
2023/11/21 07:29:48;;;;;;;7.07;5.25;;;11.30;80.50;;;;;;4951856;29;20036;-76
2023/11/21 07:32:14;;;;;;;7.75;5.50;;;11.30;80.50;;;;;;4954227;29;20094;-74
2023/11/21 07:34:41;;;;;;;7.35;5.47;;;11.30;80.60;;;;;;4938478;29;20045;-76
2023/11/21 07:37:08;;;;;;;6.78;5.35;;;11.30;80.50;;;;;;4935828;29;20362;-75
2023/11/21 07:39:36;;;;;;;7.35;5.07;;;11.30;80.50;;;;;;4953942;29;20091;-74
2023/11/21 07:42:02;;;;;;;6.70;5.13;;;11.30;80.60;;;;;;4954613;29;20051;-74
2023/11/21 07:44:28;;;;;;;7.40;5.43;;;11.30;80.50;;;;;;4948256;29;20107;-74
2023/11/21 07:46:58;;;;;;;6.82;5.22;;;11.30;80.50;;;;;;4954611;29;20054;-74
2023/11/21 07:49:24;;;;;;;6.78;5.45;;;11.30;80.50;;;;;;4954872;29;20043;-75
2023/11/21 07:51:50;;;;;;;6.68;4.82;;;11.30;80.50;;;;;;4954385;29;20424;-75
2023/11/21 07:54:16;;;;;;;8.00;5.32;;;11.30;80.50;;;;;;4935501;29;20055;-75
2023/11/21 07:56:42;;;;;;;7.07;5.68;;;11.30;80.50;;;;;;4951285;29;20451;-75
2023/11/21 07:59:08;;;;;;;7.15;5.47;;;11.30;80.50;;;;;;4956098;29;20019;-74
2023/11/21 08:01:33;;;;;;;7.40;5.70;;;11.30;80.50;;;;;;4953397;29;20535;-74
2023/11/21 08:04:03;;;;;;;7.60;5.63;;;11.30;80.40;;;;;;4948866;29;20494;-74
2023/11/21 08:06:30;;;;;;;7.15;5.45;;;11.30;80.40;;;;;;4936088;29;20102;-74
2023/11/21 08:08:56;;;;;;;7.28;5.30;;;11.30;80.50;;;;;;4937748;29;20391;-74
2023/11/21 08:11:22;;;;;;;7.57;5.70;;;11.30;80.50;;;;;;4954523;29;20117;-74
2023/11/21 08:13:48;;;;;;;7.20;5.50;;;11.30;80.40;;;;;;4953751;29;20480;-74
2023/11/21 08:16:14;;;;;;;7.57;5.45;;;11.40;80.50;;;;;;4935249;29;20055;-74
2023/11/21 08:18:41;;;;;;;7.18;5.22;;;11.30;80.40;;;;;;4922623;29;20396;-74
2023/11/21 08:21:07;;;;;;;7.50;5.38;;;11.40;80.50;;;;;;4937946;29;20534;-74
2023/11/21 08:23:34;;;;;;;6.65;5.15;;;11.40;80.50;;;;;;4953815;28;20027;-74
2023/11/21 08:26:00;;;;;;;7.07;5.20;;;11.40;80.50;;;;;;4937661;29;20031;-74
2023/11/21 08:28:28;;;;;;;8.48;5.80;;;11.40;80.50;;;;;;4955430;28;20546;-74
2023/11/21 08:30:54;;;;;;;6.63;5.13;;;11.40;80.50;;;;;;4954144;29;20074;-75
2023/11/21 08:33:20;;;;;;;7.80;5.70;;;11.40;80.40;;;;;;4955749;29;20501;-74
2023/11/21 08:35:46;;;;;;;7.55;5.55;;;11.40;80.40;;;;;;4936040;29;20032;-75
2023/11/21 08:38:12;;;;;;;7.18;5.40;;;11.40;80.40;;;;;;4943421;29;20082;-74
2023/11/21 08:40:38;;;;;;;7.00;5.07;;;11.40;80.40;;;;;;4956478;29;20062;-74
2023/11/21 08:43:07;;;;;;;6.90;5.07;;;11.40;80.50;;;;;;4939910;29;20031;-75
2023/11/21 08:45:34;;;;;;;7.18;5.40;;;11.50;80.50;;;;;;4949316;29;20035;-75
2023/11/21 08:48:03;;;;;;;6.50;4.90;;;11.40;80.40;;;;;;4955823;29;20031;-75
2023/11/21 08:50:29;;;;;;;6.80;4.93;;;11.40;80.50;;;;;;4921401;29;20121;-75
2023/11/21 08:52:55;;;;;;;7.32;5.50;;;11.50;80.50;;;;;;4934449;29;20059;-75
2023/11/21 08:55:21;;;;;;;6.68;5.22;;;11.50;80.50;;;;;;4950925;29;20035;-75
2023/11/21 08:57:47;;;;;;;7.18;5.20;;;11.50;80.50;;;;;;4953322;29;20038;-75
2023/11/21 09:00:15;;;;;;;8.00;5.45;;;11.50;80.50;;;;;;4934831;29;20047;-75
2023/11/21 09:02:41;;;;;;;7.10;5.45;;;11.50;80.50;;;;;;4935678;29;20024;-75
2023/11/21 09:05:09;;;;;;;7.45;5.13;;;11.50;80.50;;;;;;4954608;28;20066;-74
2023/11/21 09:07:39;;;;;;;6.68;4.90;;;11.50;80.50;;;;;;4937299;29;20458;-75
2023/11/21 09:10:07;;;;;;;7.57;5.25;;;11.50;80.50;;;;;;4936702;29;20512;-74
2023/11/21 09:12:40;;;;;;;7.63;5.30;;;11.50;80.50;;;;;;4935385;29;20019;-75
2023/11/21 09:15:07;;;;;;;7.82;5.63;;;11.60;80.60;;;;;;4953658;29;20057;-75
2023/11/21 09:17:34;;;;;;;7.43;5.65;;;11.50;80.50;;;;;;4952593;29;20035;-74
2023/11/21 09:20:00;;;;;;;7.18;5.53;;;11.60;80.50;;;;;;4937188;29;21006;-75
2023/11/21 09:22:26;;;;;;;6.60;5.07;;;11.60;80.50;;;;;;4954668;29;20047;-75
2023/11/21 09:24:52;;;;;;;7.35;5.68;;;11.60;80.50;;;;;;4936413;29;20451;-74
2023/11/21 09:27:19;;;;;;;7.22;5.65;;;11.60;80.50;;;;;;4953583;29;20103;-75
2023/11/21 09:29:47;;;;;;;7.88;5.60;;;11.60;80.50;;;;;;4952480;29;20039;-74
2023/11/21 09:32:16;;;;;;;7.32;5.72;;;11.60;80.50;;;;;;4936938;29;20400;-74
2023/11/21 09:34:41;;;;;;;7.28;5.38;;;11.60;80.50;;;;;;4936326;29;20051;-75
2023/11/21 09:37:08;;;;;;;7.00;5.03;;;11.70;80.50;;;;;;4937340;29;20155;-74
2023/11/21 09:39:34;;;;;;;6.72;5.22;;;11.60;80.50;;;;;;4954128;28;20054;-74
2023/11/21 09:42:05;;;;;;;6.95;5.03;;;11.70;80.50;;;;;;4952822;29;20043;-74
2023/11/21 09:45:01;;;;;;;6.45;5.05;;;11.70;80.50;;;;;;4946654;29;20399;-75
2023/11/21 09:47:27;;;;;;;7.43;5.00;;;11.70;80.50;;;;;;4920007;29;20444;-75
2023/11/21 09:49:56;;;;;;;6.82;5.18;;;11.70;80.40;;;;;;4953793;29;20046;-75
2023/11/21 09:52:25;;;;;;;7.18;5.20;;;11.70;80.50;;;;;;4936873;29;20030;-75
2023/11/21 09:54:57;;;;;;;6.90;5.38;;;11.70;80.50;;;;;;4944712;29;20038;-75
2023/11/21 09:57:24;;;;;;;6.95;5.32;;;11.70;80.50;;;;;;4933455;29;20369;-74
2023/11/21 09:59:56;;;;;;;7.07;5.00;;;11.70;80.40;;;;;;4951522;29;20043;-75
2023/11/21 10:02:29;;;;;;;7.35;5.45;;;11.70;80.50;;;;;;4953641;28;20082;-75
2023/11/21 10:04:56;;;;;;;7.93;5.50;;;11.80;80.50;;;;;;4952111;29;20449;-75
2023/11/21 10:07:23;;;;;;;8.18;5.82;;;11.70;80.40;;;;;;4950883;29;20082;-75
2023/11/21 10:09:51;;;;;;;8.25;5.32;;;11.70;80.50;;;;;;4951687;29;20110;-75
2023/11/21 10:12:17;;;;;;;9.43;5.72;;;11.80;80.50;;;;;;4952744;29;20036;-75
2023/11/21 10:14:46;;;;;;;7.63;5.22;;;11.80;80.50;;;;;;4936065;29;20476;-75
2023/11/21 10:17:16;;;;;;;8.25;5.93;;;11.80;80.50;;;;;;4952559;29;20069;-74
2023/11/21 10:19:43;;;;;;;7.68;5.47;;;11.80;80.50;;;;;;4936623;29;20035;-74
2023/11/21 10:22:08;;;;;;;6.97;5.28;;;11.80;80.40;;;;;;4953350;29;20043;-74
2023/11/21 10:24:36;;;;;;;8.27;6.20;;;11.90;80.50;;;;;;4917409;29;20460;-74
2023/11/21 10:27:03;;;;;;;8.07;5.93;;;11.90;81.10;;;;;;4950466;29;20365;-75
2023/11/21 10:29:30;;;;;;;9.20;5.80;;;11.90;81.10;;;;;;4952174;29;20045;-75
2023/11/21 10:31:58;;;;;;;8.63;5.78;;;11.90;80.50;;;;;;4952693;29;20030;-78
2023/11/21 10:34:24;;;;;;;7.93;5.72;;;11.90;80.40;;;;;;4920214;29;20035;-74
2023/11/21 10:36:50;;;;;;;8.13;6.05;;;11.90;80.40;;;;;;4946847;29;20150;-75
2023/11/21 10:39:23;;;;;;;8.10;5.78;;;11.90;80.40;;;;;;4898478;29;20028;-75
2023/11/21 10:41:50;;;;;;;7.88;5.50;;;12.00;80.40;;;;;;4952942;29;20038;-74
2023/11/21 10:44:23;;;;;;;8.07;5.50;;;12.00;80.40;;;;;;4933372;29;20036;-75
2023/11/21 10:46:50;;;;;;;7.50;5.43;;;12.00;80.30;;;;;;4921950;29;20039;-75
2023/11/21 10:49:20;;;;;;;7.93;5.90;;;12.00;80.30;;;;;;4957181;28;20055;-74
2023/11/21 10:51:48;;;;;;;8.65;5.90;;;12.10;80.40;;;;;;4923854;29;20027;-76
2023/11/21 10:54:20;;;;;;;8.35;5.75;;;12.10;80.30;;;;;;4955861;29;20415;-75
2023/11/21 10:56:50;;;;;;;7.38;5.47;;;12.10;80.30;;;;;;4939656;29;20027;-75
2023/11/21 10:59:17;;;;;;;8.35;5.65;;;12.10;80.30;;;;;;4940168;29;20042;-75
2023/11/21 11:01:45;;;;;;;6.90;5.45;;;12.10;80.20;;;;;;4937525;29;20036;-75
2023/11/21 11:04:16;;;;;;;7.93;5.70;;;12.10;80.20;;;;;;4956624;29;20028;-75
2023/11/21 11:06:43;;;;;;;7.45;5.28;;;12.10;80.20;;;;;;4955690;29;20027;-75
2023/11/21 11:09:13;;;;;;;7.78;5.38;;;12.20;80.20;;;;;;4952340;29;20034;-75
2023/11/21 11:11:49;;;;;;;8.27;5.95;;;12.20;80.10;;;;;;4955497;29;20106;-75
2023/11/21 11:14:16;;;;;;;7.25;5.38;;;12.20;80.10;;;;;;4955680;29;20055;-75
2023/11/21 11:16:45;;;;;;;7.85;5.57;;;12.20;80.10;;;;;;4955692;29;20388;-75
2023/11/21 11:19:12;;;;;;;9.43;5.90;;;12.30;80.10;;;;;;4954726;29;20031;-75
2023/11/21 11:21:59;;;;;;;7.97;5.63;;;12.30;80.10;;;;;;4955499;29;20049;-75
2023/11/21 11:25:13;;;;;;;7.53;5.70;;;12.30;80.10;;;;;;4954374;29;20502;-75
2023/11/21 11:27:57;;;;;;;7.80;5.72;;;12.30;80.10;;;;;;4954645;28;20043;-75
2023/11/21 11:30:47;;;;;;;9.00;6.03;;;12.30;79.90;;;;;;4948197;29;20062;-75
2023/11/21 11:33:29;;;;;;;7.45;4.70;;;12.30;80.00;;;;;;4928741;29;20175;-75
2023/11/21 11:36:00;;;;;;;7.57;5.20;;;12.40;79.90;;;;;;4955998;29;20030;-75
2023/11/21 11:38:31;;;;;;;8.27;5.32;;;12.40;79.90;;;;;;4949855;29;20380;-75
2023/11/21 11:40:57;;;;;;;7.97;5.22;;;12.40;79.90;;;;;;4956411;28;20035;-75
2023/11/21 11:43:28;;;;;;;8.32;5.43;;;12.40;79.90;;;;;;4954880;29;20029;-75
2023/11/21 11:45:58;;;;;;;7.00;5.15;;;12.40;79.90;;;;;;4954708;29;20038;-75
2023/11/21 11:48:25;;;;;;;7.75;5.50;;;12.50;79.90;;;;;;4936371;29;20043;-75
2023/11/21 11:51:09;;;;;;;7.90;5.10;;;12.50;79.80;;;;;;4955851;29;20496;-75
2023/11/21 11:53:39;;;;;;;6.85;5.07;;;12.50;79.90;;;;;;4950598;29;20165;-74
2023/11/21 11:56:34;;;;;;;6.72;5.03;;;12.50;79.80;;;;;;4956147;29;20106;-75
2023/11/21 11:59:02;;;;;;;7.50;5.45;;;12.50;79.80;;;;;;4955209;28;20518;-75
2023/11/21 12:01:29;;;;;;;6.45;4.88;;;12.50;79.70;;;;;;4954583;29;20050;-75
2023/11/21 12:04:46;;;;;;;6.95;4.88;;;12.60;79.70;;;;;;4955461;29;20035;-75
2023/11/21 12:07:05;;;;;;;7.07;5.38;;;12.60;79.80;;;;;;4960772;28;20086;-75
2023/11/21 12:09:33;;;;;;;10.77;4.57;;;12.60;79.60;;;;;;4953865;29;20043;-75
2023/11/21 12:12:00;;;;;;;7.50;5.10;;;12.60;79.70;;;;;;4955127;29;20043;-75
2023/11/21 12:14:26;;;;;;;7.38;5.35;;;12.60;79.80;;;;;;4954089;29;20078;-75
2023/11/21 12:16:52;;;;;;;6.95;4.93;;;12.60;79.70;;;;;;4955540;29;20090;-75
2023/11/21 12:19:18;;;;;;;7.07;5.03;;;12.60;79.70;;;;;;4953732;29;20039;-75
2023/11/21 12:21:44;;;;;;;6.63;4.82;;;12.60;79.70;;;;;;4948534;29;20043;-75
2023/11/21 12:24:13;;;;;;;6.68;4.88;;;12.60;79.70;;;;;;4953762;29;20472;-75
2023/11/21 12:26:39;;;;;;;6.47;4.68;;;12.60;79.70;;;;;;4948148;29;20480;-75
2023/11/21 12:29:07;;;;;;;6.30;4.85;;;12.70;79.70;;;;;;4953770;29;20035;-75
2023/11/21 12:31:34;;;;;;;6.25;4.53;;;12.70;79.70;;;;;;4954373;29;20047;-75
2023/11/21 12:34:00;;;;;;;6.70;5.03;;;12.70;79.70;;;;;;4955042;29;20032;-75
2023/11/21 12:36:28;;;;;;;6.47;4.63;;;12.70;79.70;;;;;;4953945;29;20032;-75
2023/11/21 12:38:54;;;;;;;5.95;4.65;;;12.70;79.60;;;;;;4955620;29;20031;-75
2023/11/21 12:41:21;;;;;;;6.00;4.30;;;12.70;79.60;;;;;;4935321;29;20586;-75
2023/11/21 12:43:47;;;;;;;6.35;4.28;;;12.70;79.70;;;;;;4953739;29;20114;-75
2023/11/21 12:46:15;;;;;;;5.68;3.75;;;12.80;79.70;;;;;;4934769;29;20024;-75
2023/11/21 12:48:45;;;;;;;7.20;5.00;;;12.80;79.70;;;;;;4952394;29;20064;-75